sensor_id;sensor_type;location;lat;lon;timestamp;pressure;altitude;pressure_sealevel;temperature;humidity
61434;BME280;47300;46.192;9.000;2022-12-29T00:02:11;98901.00;;;6.18;74.47
61434;BME280;47300;46.192;9.000;2022-12-29T00:04:36;98891.50;;;6.20;74.53
61434;BME280;47300;46.192;9.000;2022-12-29T00:07:01;98887.91;;;6.15;75.29
61434;BME280;47300;46.192;9.000;2022-12-29T00:09:29;98887.13;;;6.17;75.63
61434;BME280;47300;46.192;9.000;2022-12-29T00:11:54;98886.16;;;6.14;74.17
61434;BME280;47300;46.192;9.000;2022-12-29T00:14:20;98880.16;;;6.18;73.87
61434;BME280;47300;46.192;9.000;2022-12-29T00:17:03;98876.81;;;6.23;74.49
61434;BME280;47300;46.192;9.000;2022-12-29T00:19:28;98864.63;;;6.24;74.55
61434;BME280;47300;46.192;9.000;2022-12-29T00:22:13;98870.63;;;6.18;73.88
61434;BME280;47300;46.192;9.000;2022-12-29T00:24:57;98870.63;;;6.20;73.60
61434;BME280;47300;46.192;9.000;2022-12-29T00:27:41;98862.81;;;6.18;73.98
61434;BME280;47300;46.192;9.000;2022-12-29T00:30:25;98863.72;;;6.20;74.02
61434;BME280;47300;46.192;9.000;2022-12-29T00:33:13;98858.50;;;6.20;74.13
61434;BME280;47300;46.192;9.000;2022-12-29T00:36:01;98854.81;;;6.09;73.85
61434;BME280;47300;46.192;9.000;2022-12-29T00:38:27;98857.03;;;5.93;73.73
61434;BME280;47300;46.192;9.000;2022-12-29T00:41:11;98856.97;;;5.89;74.71
61434;BME280;47300;46.192;9.000;2022-12-29T00:43:55;98860.72;;;6.02;74.59
61434;BME280;47300;46.192;9.000;2022-12-29T00:46:29;98863.38;;;6.05;74.52
61434;BME280;47300;46.192;9.000;2022-12-29T00:48:55;98861.63;;;6.04;74.84
61434;BME280;47300;46.192;9.000;2022-12-29T00:51:39;98854.63;;;6.01;75.34
61434;BME280;47300;46.192;9.000;2022-12-29T00:54:04;98852.88;;;6.02;75.79
61434;BME280;47300;46.192;9.000;2022-12-29T00:56:29;98842.00;;;5.80;76.76
61434;BME280;47300;46.192;9.000;2022-12-29T00:58:54;98844.50;;;5.75;77.59
61434;BME280;47300;46.192;9.000;2022-12-29T01:01:19;98831.34;;;5.69;77.77
61434;BME280;47300;46.192;9.000;2022-12-29T01:03:45;98826.19;;;5.71;77.76
61434;BME280;47300;46.192;9.000;2022-12-29T01:06:10;98821.50;;;5.56;78.95
61434;BME280;47300;46.192;9.000;2022-12-29T01:08:35;98824.06;;;5.54;78.74
61434;BME280;47300;46.192;9.000;2022-12-29T01:11:05;98820.44;;;5.47;79.33
61434;BME280;47300;46.192;9.000;2022-12-29T01:13:30;98817.16;;;5.56;75.41
61434;BME280;47300;46.192;9.000;2022-12-29T01:15:56;98823.94;;;5.48;79.09
61434;BME280;47300;46.192;9.000;2022-12-29T01:18:21;98819.78;;;5.56;79.63
61434;BME280;47300;46.192;9.000;2022-12-29T01:20:47;98825.09;;;5.62;77.54
61434;BME280;47300;46.192;9.000;2022-12-29T01:23:12;98832.78;;;5.55;78.66
61434;BME280;47300;46.192;9.000;2022-12-29T01:25:37;98826.78;;;5.59;78.45
61434;BME280;47300;46.192;9.000;2022-12-29T01:28:03;98832.97;;;5.64;78.35
61434;BME280;47300;46.192;9.000;2022-12-29T01:30:28;98832.19;;;5.68;78.37
61434;BME280;47300;46.192;9.000;2022-12-29T01:32:53;98832.13;;;5.67;78.30
61434;BME280;47300;46.192;9.000;2022-12-29T01:35:18;98825.19;;;5.65;79.06
61434;BME280;47300;46.192;9.000;2022-12-29T01:37:44;98830.47;;;5.69;78.61
61434;BME280;47300;46.192;9.000;2022-12-29T01:40:09;98828.03;;;5.76;76.48
61434;BME280;47300;46.192;9.000;2022-12-29T01:42:34;98833.22;;;5.76;76.14
61434;BME280;47300;46.192;9.000;2022-12-29T01:45:00;98834.91;;;5.73;76.15
61434;BME280;47300;46.192;9.000;2022-12-29T01:50:17;98833.63;;;5.55;76.02
61434;BME280;47300;46.192;9.000;2022-12-29T01:52:54;98832.94;;;5.62;76.13
61434;BME280;47300;46.192;9.000;2022-12-29T01:55:20;98831.75;;;5.48;76.43
61434;BME280;47300;46.192;9.000;2022-12-29T01:57:47;98835.31;;;5.52;76.80
61434;BME280;47300;46.192;9.000;2022-12-29T02:00:14;98830.13;;;5.53;76.91
61434;BME280;47300;46.192;9.000;2022-12-29T02:02:41;98824.00;;;5.51;77.85
61434;BME280;47300;46.192;9.000;2022-12-29T02:05:11;98821.22;;;5.43;78.35
61434;BME280;47300;46.192;9.000;2022-12-29T02:07:39;98816.06;;;5.46;78.59
61434;BME280;47300;46.192;9.000;2022-12-29T02:10:04;98819.53;;;5.45;79.04
61434;BME280;47300;46.192;9.000;2022-12-29T02:12:30;98820.44;;;5.46;79.17
61434;BME280;47300;46.192;9.000;2022-12-29T02:14:57;98810.13;;;5.50;78.86
61434;BME280;47300;46.192;9.000;2022-12-29T02:20:34;98809.66;;;5.70;75.53
61434;BME280;47300;46.192;9.000;2022-12-29T02:30:42;98826.56;;;5.89;72.16
61434;BME280;47300;46.192;9.000;2022-12-29T02:35:49;98824.69;;;5.82;75.30
61434;BME280;47300;46.192;9.000;2022-12-29T02:43:35;98822.53;;;6.04;73.22
61434;BME280;47300;46.192;9.000;2022-12-29T02:46:10;98820.91;;;6.09;74.00
61434;BME280;47300;46.192;9.000;2022-12-29T02:48:38;98823.38;;;6.01;74.92
61434;BME280;47300;46.192;9.000;2022-12-29T02:51:10;98824.13;;;5.97;76.15
61434;BME280;47300;46.192;9.000;2022-12-29T02:53:39;98818.06;;;5.98;76.74
61434;BME280;47300;46.192;9.000;2022-12-29T02:56:23;98812.63;;;5.87;77.49
61434;BME280;47300;46.192;9.000;2022-12-29T02:58:49;98809.06;;;5.84;75.18
61434;BME280;47300;46.192;9.000;2022-12-29T03:03:59;98825.53;;;5.83;75.61
61434;BME280;47300;46.192;9.000;2022-12-29T03:09:18;98825.47;;;5.79;74.40
61434;BME280;47300;46.192;9.000;2022-12-29T03:12:09;98827.22;;;5.80;75.13
61434;BME280;47300;46.192;9.000;2022-12-29T03:14:37;98822.25;;;5.90;75.75
61434;BME280;47300;46.192;9.000;2022-12-29T03:17:27;98821.50;;;5.97;75.52
61434;BME280;47300;46.192;9.000;2022-12-29T03:19:58;98819.06;;;6.05;74.66
61434;BME280;47300;46.192;9.000;2022-12-29T03:22:27;98822.38;;;5.98;74.66
61434;BME280;47300;46.192;9.000;2022-12-29T03:24:58;98815.63;;;6.06;75.78
61434;BME280;47300;46.192;9.000;2022-12-29T03:27:26;98816.19;;;5.92;76.89
61434;BME280;47300;46.192;9.000;2022-12-29T03:29:54;98813.47;;;5.86;77.61
61434;BME280;47300;46.192;9.000;2022-12-29T03:32:21;98812.78;;;5.95;76.58
61434;BME280;47300;46.192;9.000;2022-12-29T03:34:49;98815.00;;;5.76;78.95
61434;BME280;47300;46.192;9.000;2022-12-29T03:37:16;98822.75;;;5.73;79.64
61434;BME280;47300;46.192;9.000;2022-12-29T03:39:42;98824.25;;;5.62;80.93
61434;BME280;47300;46.192;9.000;2022-12-29T03:42:14;98814.75;;;5.64;80.92
61434;BME280;47300;46.192;9.000;2022-12-29T03:44:42;98814.81;;;5.67;81.81
61434;BME280;47300;46.192;9.000;2022-12-29T03:47:07;98804.56;;;5.76;81.88
61434;BME280;47300;46.192;9.000;2022-12-29T03:49:32;98801.09;;;5.76;81.74
61434;BME280;47300;46.192;9.000;2022-12-29T03:51:58;98800.22;;;5.75;81.17
61434;BME280;47300;46.192;9.000;2022-12-29T03:54:23;98800.88;;;5.65;82.15
61434;BME280;47300;46.192;9.000;2022-12-29T03:56:48;98801.72;;;5.64;83.18
61434;BME280;47300;46.192;9.000;2022-12-29T03:59:14;98797.31;;;5.61;83.34
61434;BME280;47300;46.192;9.000;2022-12-29T04:01:39;98787.66;;;5.56;83.36
61434;BME280;47300;46.192;9.000;2022-12-29T04:04:04;98781.56;;;5.55;83.40
61434;BME280;47300;46.192;9.000;2022-12-29T04:06:29;98785.97;;;5.59;83.17
61434;BME280;47300;46.192;9.000;2022-12-29T04:08:54;98778.09;;;5.56;84.07
61434;BME280;47300;46.192;9.000;2022-12-29T04:11:20;98773.00;;;5.61;82.81
61434;BME280;47300;46.192;9.000;2022-12-29T04:13:45;98770.47;;;5.65;81.99
61434;BME280;47300;46.192;9.000;2022-12-29T04:16:11;98771.59;;;5.77;81.53
61434;BME280;47300;46.192;9.000;2022-12-29T04:18:36;98767.31;;;5.80;81.71
61434;BME280;47300;46.192;9.000;2022-12-29T04:21:01;98758.66;;;5.82;79.66
61434;BME280;47300;46.192;9.000;2022-12-29T04:23:28;98754.34;;;5.84;81.15
61434;BME280;47300;46.192;9.000;2022-12-29T04:25:53;98761.31;;;5.83;81.52
61434;BME280;47300;46.192;9.000;2022-12-29T04:28:19;98752.53;;;5.78;81.62
61434;BME280;47300;46.192;9.000;2022-12-29T04:30:44;98756.88;;;5.79;82.55
61434;BME280;47300;46.192;9.000;2022-12-29T04:33:10;98752.59;;;5.81;81.09
61434;BME280;47300;46.192;9.000;2022-12-29T04:35:35;98758.72;;;5.85;81.05
61434;BME280;47300;46.192;9.000;2022-12-29T04:38:00;98749.25;;;5.88;82.00
61434;BME280;47300;46.192;9.000;2022-12-29T04:40:26;98751.91;;;5.91;80.84
61434;BME280;47300;46.192;9.000;2022-12-29T04:42:51;98756.25;;;5.92;81.60
61434;BME280;47300;46.192;9.000;2022-12-29T04:45:16;98757.75;;;5.79;81.94
61434;BME280;47300;46.192;9.000;2022-12-29T04:47:42;98763.06;;;5.84;81.06
61434;BME280;47300;46.192;9.000;2022-12-29T04:50:07;98760.28;;;5.76;81.49
61434;BME280;47300;46.192;9.000;2022-12-29T04:52:33;98754.13;;;5.71;81.21
61434;BME280;47300;46.192;9.000;2022-12-29T04:54:58;98762.59;;;5.62;81.55
61434;BME280;47300;46.192;9.000;2022-12-29T04:57:23;98772.97;;;5.59;83.46
61434;BME280;47300;46.192;9.000;2022-12-29T04:59:48;98777.13;;;5.49;83.29
61434;BME280;47300;46.192;9.000;2022-12-29T05:02:14;98785.72;;;5.47;83.00
61434;BME280;47300;46.192;9.000;2022-12-29T05:04:39;98789.97;;;5.42;81.25
61434;BME280;47300;46.192;9.000;2022-12-29T05:07:04;98788.56;;;5.58;78.71
61434;BME280;47300;46.192;9.000;2022-12-29T05:09:30;98788.75;;;5.67;77.99
61434;BME280;47300;46.192;9.000;2022-12-29T05:11:55;98782.03;;;5.78;77.00
61434;BME280;47300;46.192;9.000;2022-12-29T05:14:20;98779.13;;;5.63;82.84
61434;BME280;47300;46.192;9.000;2022-12-29T05:16:45;98778.91;;;5.52;84.12
61434;BME280;47300;46.192;9.000;2022-12-29T05:19:11;98774.53;;;5.51;82.52
61434;BME280;47300;46.192;9.000;2022-12-29T05:21:36;98771.38;;;5.66;79.77
61434;BME280;47300;46.192;9.000;2022-12-29T05:24:01;98763.78;;;5.77;77.31
61434;BME280;47300;46.192;9.000;2022-12-29T05:26:26;98758.81;;;5.89;75.22
61434;BME280;47300;46.192;9.000;2022-12-29T05:28:51;98762.44;;;5.96;74.60
61434;BME280;47300;46.192;9.000;2022-12-29T05:31:17;98759.13;;;6.03;73.65
61434;BME280;47300;46.192;9.000;2022-12-29T05:33:42;98759.97;;;6.02;76.93
61434;BME280;47300;46.192;9.000;2022-12-29T05:36:07;98769.41;;;5.99;76.28
61434;BME280;47300;46.192;9.000;2022-12-29T05:38:33;98767.66;;;5.98;76.47
61434;BME280;47300;46.192;9.000;2022-12-29T05:40:58;98771.97;;;5.96;77.54
61434;BME280;47300;46.192;9.000;2022-12-29T05:43:24;98772.75;;;5.91;77.76
61434;BME280;47300;46.192;9.000;2022-12-29T05:45:49;98782.25;;;5.88;79.30
61434;BME280;47300;46.192;9.000;2022-12-29T05:48:14;98795.34;;;5.91;80.11
61434;BME280;47300;46.192;9.000;2022-12-29T05:50:40;98794.94;;;5.72;81.67
61434;BME280;47300;46.192;9.000;2022-12-29T05:53:05;98796.88;;;5.81;80.67
61434;BME280;47300;46.192;9.000;2022-12-29T05:55:30;98808.97;;;5.79;76.55
61434;BME280;47300;46.192;9.000;2022-12-29T05:57:55;98812.44;;;5.79;78.09
61434;BME280;47300;46.192;9.000;2022-12-29T06:00:21;98807.16;;;5.75;81.79
61434;BME280;47300;46.192;9.000;2022-12-29T06:02:46;98810.63;;;5.75;82.04
61434;BME280;47300;46.192;9.000;2022-12-29T06:05:11;98806.94;;;5.65;82.97
61434;BME280;47300;46.192;9.000;2022-12-29T06:07:36;98804.13;;;5.55;84.24
61434;BME280;47300;46.192;9.000;2022-12-29T06:10:02;98799.41;;;5.38;85.52
61434;BME280;47300;46.192;9.000;2022-12-29T06:12:27;98787.16;;;5.32;85.08
61434;BME280;47300;46.192;9.000;2022-12-29T06:14:52;98783.59;;;5.29;85.04
61434;BME280;47300;46.192;9.000;2022-12-29T06:17:17;98778.59;;;5.38;86.07
61434;BME280;47300;46.192;9.000;2022-12-29T06:19:42;98775.97;;;5.38;85.91
61434;BME280;47300;46.192;9.000;2022-12-29T06:22:09;98777.81;;;5.42;85.52
61434;BME280;47300;46.192;9.000;2022-12-29T06:24:37;98770.81;;;5.40;83.45
61434;BME280;47300;46.192;9.000;2022-12-29T06:27:02;98767.31;;;5.38;82.01
61434;BME280;47300;46.192;9.000;2022-12-29T06:29:27;98765.56;;;5.36;80.88
61434;BME280;47300;46.192;9.000;2022-12-29T06:31:53;98757.81;;;5.41;80.64
61434;BME280;47300;46.192;9.000;2022-12-29T06:34:21;98766.34;;;5.32;80.55
61434;BME280;47300;46.192;9.000;2022-12-29T06:36:46;98768.09;;;5.33;81.19
61434;BME280;47300;46.192;9.000;2022-12-29T06:39:11;98764.22;;;5.16;82.05
61434;BME280;47300;46.192;9.000;2022-12-29T06:41:36;98771.44;;;5.28;81.66
61434;BME280;47300;46.192;9.000;2022-12-29T06:44:01;98760.16;;;5.29;81.31
61434;BME280;47300;46.192;9.000;2022-12-29T06:46:27;98766.25;;;5.29;79.54
61434;BME280;47300;46.192;9.000;2022-12-29T06:48:52;98766.88;;;5.17;80.67
61434;BME280;47300;46.192;9.000;2022-12-29T06:51:17;98771.31;;;5.23;80.53
61434;BME280;47300;46.192;9.000;2022-12-29T06:53:42;98767.84;;;5.22;81.84
61434;BME280;47300;46.192;9.000;2022-12-29T06:56:07;98771.22;;;5.18;82.56
61434;BME280;47300;46.192;9.000;2022-12-29T06:58:33;98773.81;;;5.18;82.15
61434;BME280;47300;46.192;9.000;2022-12-29T07:00:58;98780.78;;;5.19;82.22
61434;BME280;47300;46.192;9.000;2022-12-29T07:03:23;98782.56;;;5.22;82.99
61434;BME280;47300;46.192;9.000;2022-12-29T07:05:48;98782.63;;;5.24;83.13
61434;BME280;47300;46.192;9.000;2022-12-29T07:08:13;98780.88;;;5.24;83.15
61434;BME280;47300;46.192;9.000;2022-12-29T07:10:39;98783.66;;;5.32;83.08
61434;BME280;47300;46.192;9.000;2022-12-29T07:13:04;98784.50;;;5.31;81.98
61434;BME280;47300;46.192;9.000;2022-12-29T07:15:29;98786.50;;;5.43;81.05
61434;BME280;47300;46.192;9.000;2022-12-29T07:17:54;98789.19;;;5.47;80.98
61434;BME280;47300;46.192;9.000;2022-12-29T07:20:19;98799.00;;;5.58;79.85
61434;BME280;47300;46.192;9.000;2022-12-29T07:22:45;98796.41;;;5.59;78.92
61434;BME280;47300;46.192;9.000;2022-12-29T07:25:12;98798.28;;;5.67;78.22
61434;BME280;47300;46.192;9.000;2022-12-29T07:27:37;98806.16;;;5.68;78.48
61434;BME280;47300;46.192;9.000;2022-12-29T07:30:02;98797.72;;;5.82;77.74
61434;BME280;47300;46.192;9.000;2022-12-29T07:32:27;98802.25;;;5.89;77.11
61434;BME280;47300;46.192;9.000;2022-12-29T07:34:53;98804.00;;;5.91;77.32
61434;BME280;47300;46.192;9.000;2022-12-29T07:37:18;98808.56;;;5.59;79.05
61434;BME280;47300;46.192;9.000;2022-12-29T07:39:43;98801.72;;;5.64;79.58
61434;BME280;47300;46.192;9.000;2022-12-29T07:42:08;98796.88;;;5.83;79.56
61434;BME280;47300;46.192;9.000;2022-12-29T07:44:34;98793.19;;;5.71;80.44
61434;BME280;47300;46.192;9.000;2022-12-29T07:46:59;98802.59;;;5.64;82.98
61434;BME280;47300;46.192;9.000;2022-12-29T07:49:24;98807.97;;;5.72;83.43
61434;BME280;47300;46.192;9.000;2022-12-29T07:51:50;98805.47;;;5.77;83.20
61434;BME280;47300;46.192;9.000;2022-12-29T07:54:15;98815.91;;;5.78;83.56
61434;BME280;47300;46.192;9.000;2022-12-29T07:56:43;98815.00;;;5.76;84.37
61434;BME280;47300;46.192;9.000;2022-12-29T07:59:08;98813.16;;;5.72;84.42
61434;BME280;47300;46.192;9.000;2022-12-29T08:01:33;98807.84;;;5.66;84.82
61434;BME280;47300;46.192;9.000;2022-12-29T08:03:58;98802.94;;;5.82;85.09
61434;BME280;47300;46.192;9.000;2022-12-29T08:06:23;98799.41;;;5.78;85.38
61434;BME280;47300;46.192;9.000;2022-12-29T08:08:49;98805.16;;;5.63;85.16
61434;BME280;47300;46.192;9.000;2022-12-29T08:11:14;98813.97;;;5.68;85.43
61434;BME280;47300;46.192;9.000;2022-12-29T08:13:39;98807.38;;;5.86;83.83
61434;BME280;47300;46.192;9.000;2022-12-29T08:16:04;98803.47;;;6.06;80.83
61434;BME280;47300;46.192;9.000;2022-12-29T08:18:30;98808.97;;;6.20;82.20
61434;BME280;47300;46.192;9.000;2022-12-29T08:20:55;98813.44;;;6.28;82.81
61434;BME280;47300;46.192;9.000;2022-12-29T08:23:25;98824.03;;;6.37;82.44
61434;BME280;47300;46.192;9.000;2022-12-29T08:26:00;98818.91;;;6.42;82.10
61434;BME280;47300;46.192;9.000;2022-12-29T08:28:26;98819.88;;;6.47;81.27
61434;BME280;47300;46.192;9.000;2022-12-29T08:30:52;98825.78;;;6.36;83.11
61434;BME280;47300;46.192;9.000;2022-12-29T08:33:17;98827.75;;;6.50;82.55
61434;BME280;47300;46.192;9.000;2022-12-29T08:35:42;98830.47;;;6.55;81.57
61434;BME280;47300;46.192;9.000;2022-12-29T08:38:07;98837.59;;;6.63;80.79
61434;BME280;47300;46.192;9.000;2022-12-29T08:40:33;98836.00;;;6.73;81.22
61434;BME280;47300;46.192;9.000;2022-12-29T08:42:58;98840.41;;;6.77;80.90
61434;BME280;47300;46.192;9.000;2022-12-29T08:45:23;98837.13;;;6.88;81.15
61434;BME280;47300;46.192;9.000;2022-12-29T08:47:48;98834.63;;;6.94;81.39
61434;BME280;47300;46.192;9.000;2022-12-29T08:50:13;98841.66;;;7.00;80.73
61434;BME280;47300;46.192;9.000;2022-12-29T08:52:39;98847.56;;;6.88;80.30
61434;BME280;47300;46.192;9.000;2022-12-29T08:55:04;98835.25;;;6.79;81.09
61434;BME280;47300;46.192;9.000;2022-12-29T08:57:29;98845.69;;;6.79;81.07
61434;BME280;47300;46.192;9.000;2022-12-29T08:59:54;98844.13;;;6.90;81.72
61434;BME280;47300;46.192;9.000;2022-12-29T09:02:20;98842.50;;;6.97;81.43
61434;BME280;47300;46.192;9.000;2022-12-29T09:04:45;98843.44;;;7.02;81.00
61434;BME280;47300;46.192;9.000;2022-12-29T09:07:10;98840.03;;;7.05;79.99
61434;BME280;47300;46.192;9.000;2022-12-29T09:09:35;98842.91;;;7.23;79.02
61434;BME280;47300;46.192;9.000;2022-12-29T09:12:00;98849.97;;;7.29;80.17
61434;BME280;47300;46.192;9.000;2022-12-29T09:14:26;98851.06;;;7.44;80.79
61434;BME280;47300;46.192;9.000;2022-12-29T09:16:51;98850.13;;;7.38;80.51
61434;BME280;47300;46.192;9.000;2022-12-29T09:19:35;98850.19;;;7.45;79.12
61434;BME280;47300;46.192;9.000;2022-12-29T09:22:00;98854.53;;;7.43;78.51
61434;BME280;47300;46.192;9.000;2022-12-29T09:24:25;98849.34;;;7.44;78.67
61434;BME280;47300;46.192;9.000;2022-12-29T09:26:50;98853.63;;;7.41;78.50
61434;BME280;47300;46.192;9.000;2022-12-29T09:29:16;98848.34;;;7.37;78.93
61434;BME280;47300;46.192;9.000;2022-12-29T09:31:41;98857.91;;;7.37;79.36
61434;BME280;47300;46.192;9.000;2022-12-29T09:34:06;98860.53;;;7.37;79.45
61434;BME280;47300;46.192;9.000;2022-12-29T09:36:31;98851.94;;;7.44;77.78
61434;BME280;47300;46.192;9.000;2022-12-29T09:38:56;98851.09;;;7.45;76.80
61434;BME280;47300;46.192;9.000;2022-12-29T09:41:26;98859.56;;;7.30;76.79
61434;BME280;47300;46.192;9.000;2022-12-29T09:43:59;98853.50;;;7.31;77.06
61434;BME280;47300;46.192;9.000;2022-12-29T09:46:28;98855.22;;;7.29;76.79
61434;BME280;47300;46.192;9.000;2022-12-29T09:51:22;98851.66;;;7.24;75.55
61434;BME280;47300;46.192;9.000;2022-12-29T09:53:54;98852.63;;;7.32;75.75
61434;BME280;47300;46.192;9.000;2022-12-29T09:56:22;98851.78;;;7.33;74.66
61434;BME280;47300;46.192;9.000;2022-12-29T10:03:48;98849.28;;;7.41;75.15
61434;BME280;47300;46.192;9.000;2022-12-29T10:06:15;98841.50;;;7.44;74.94
61434;BME280;47300;46.192;9.000;2022-12-29T10:19:03;98841.72;;;7.60;76.80
61434;BME280;47300;46.192;9.000;2022-12-29T10:24:03;98834.28;;;7.28;77.68
61434;BME280;47300;46.192;9.000;2022-12-29T10:26:31;98836.88;;;7.26;77.02
61434;BME280;47300;46.192;9.000;2022-12-29T10:29:02;98836.06;;;7.32;77.56
61434;BME280;47300;46.192;9.000;2022-12-29T10:31:32;98827.50;;;7.39;76.78
61434;BME280;47300;46.192;9.000;2022-12-29T10:33:59;98827.44;;;7.36;77.01
61434;BME280;47300;46.192;9.000;2022-12-29T10:41:32;98819.81;;;7.50;75.58
61434;BME280;47300;46.192;9.000;2022-12-29T10:44:01;98818.81;;;7.40;75.78
61434;BME280;47300;46.192;9.000;2022-12-29T10:46:32;98819.84;;;7.51;75.83
61434;BME280;47300;46.192;9.000;2022-12-29T10:48:58;98818.31;;;7.69;75.59
61434;BME280;47300;46.192;9.000;2022-12-29T10:51:24;98817.59;;;7.79;74.61
61434;BME280;47300;46.192;9.000;2022-12-29T10:54:02;98812.16;;;7.62;73.44
61434;BME280;47300;46.192;9.000;2022-12-29T10:58:54;98804.00;;;7.39;75.62
61434;BME280;47300;46.192;9.000;2022-12-29T11:01:20;98797.19;;;7.50;75.58
61434;BME280;47300;46.192;9.000;2022-12-29T11:03:57;98786.00;;;7.59;76.22
61434;BME280;47300;46.192;9.000;2022-12-29T11:06:26;98800.81;;;7.60;74.96
61434;BME280;47300;46.192;9.000;2022-12-29T11:08:56;98801.44;;;7.42;75.35
61434;BME280;47300;46.192;9.000;2022-12-29T11:11:24;98798.81;;;7.42;76.35
61434;BME280;47300;46.192;9.000;2022-12-29T11:13:54;98796.44;;;7.59;75.65
61434;BME280;47300;46.192;9.000;2022-12-29T11:16:27;98788.75;;;7.73;75.40
61434;BME280;47300;46.192;9.000;2022-12-29T11:18:52;98788.03;;;7.85;72.07
61434;BME280;47300;46.192;9.000;2022-12-29T11:21:32;98787.28;;;7.94;72.86
61434;BME280;47300;46.192;9.000;2022-12-29T11:24:04;98788.19;;;7.96;71.25
61434;BME280;47300;46.192;9.000;2022-12-29T11:26:30;98777.81;;;8.04;71.21
61434;BME280;47300;46.192;9.000;2022-12-29T11:29:39;98767.41;;;8.11;70.21
61434;BME280;47300;46.192;9.000;2022-12-29T11:31:49;98770.22;;;8.29;69.65
61434;BME280;47300;46.192;9.000;2022-12-29T11:34:33;98761.63;;;8.39;69.19
61434;BME280;47300;46.192;9.000;2022-12-29T11:37:03;98756.31;;;8.31;70.95
61434;BME280;47300;46.192;9.000;2022-12-29T11:41:54;98756.94;;;8.07;72.43
61434;BME280;47300;46.192;9.000;2022-12-29T11:44:19;98748.03;;;7.92;73.16
61434;BME280;47300;46.192;9.000;2022-12-29T11:46:46;98744.44;;;7.79;74.12
61434;BME280;47300;46.192;9.000;2022-12-29T11:49:13;98732.41;;;7.95;72.86
61434;BME280;47300;46.192;9.000;2022-12-29T11:51:44;98729.06;;;8.10;72.39
61434;BME280;47300;46.192;9.000;2022-12-29T11:54:13;98729.03;;;8.07;73.24
61434;BME280;47300;46.192;9.000;2022-12-29T11:56:42;98730.13;;;8.28;73.06
61434;BME280;47300;46.192;9.000;2022-12-29T12:01:51;98720.97;;;8.77;70.11
61434;BME280;47300;46.192;9.000;2022-12-29T12:04:17;98712.44;;;9.04;68.48
61434;BME280;47300;46.192;9.000;2022-12-29T12:06:46;98708.28;;;9.39;66.92
61434;BME280;47300;46.192;9.000;2022-12-29T12:09:14;98703.13;;;9.56;63.98
61434;BME280;47300;46.192;9.000;2022-12-29T12:11:42;98698.88;;;9.97;66.30
61434;BME280;47300;46.192;9.000;2022-12-29T12:14:19;98687.53;;;10.09;63.72
61434;BME280;47300;46.192;9.000;2022-12-29T12:16:48;98684.03;;;10.19;60.29
61434;BME280;47300;46.192;9.000;2022-12-29T12:21:45;98677.94;;;10.85;59.50
61434;BME280;47300;46.192;9.000;2022-12-29T12:24:20;98670.94;;;10.81;58.73
61434;BME280;47300;46.192;9.000;2022-12-29T12:27:02;98670.00;;;11.21;57.88
61434;BME280;47300;46.192;9.000;2022-12-29T12:29:37;98669.06;;;11.30;56.62
61434;BME280;47300;46.192;9.000;2022-12-29T12:34:43;98660.38;;;11.15;55.33
61434;BME280;47300;46.192;9.000;2022-12-29T12:42:28;98645.38;;;11.41;51.71
61434;BME280;47300;46.192;9.000;2022-12-29T13:00:18;98638.06;;;11.97;47.62
61434;BME280;47300;46.192;9.000;2022-12-29T13:02:50;98632.78;;;12.07;48.68
61434;BME280;47300;46.192;9.000;2022-12-29T13:07:54;98626.72;;;11.87;50.29
61434;BME280;47300;46.192;9.000;2022-12-29T13:11:08;98626.09;;;11.42;52.19
61434;BME280;47300;46.192;9.000;2022-12-29T13:13:31;98621.00;;;11.05;53.04
61434;BME280;47300;46.192;9.000;2022-12-29T13:18:39;98614.94;;;10.87;54.32
61434;BME280;47300;46.192;9.000;2022-12-29T13:21:10;98609.69;;;10.79;54.23
61434;BME280;47300;46.192;9.000;2022-12-29T13:23:44;98600.97;;;10.74;54.22
61434;BME280;47300;46.192;9.000;2022-12-29T13:26:24;98603.59;;;10.68;54.03
61434;BME280;47300;46.192;9.000;2022-12-29T13:28:55;98591.34;;;10.57;55.30
61434;BME280;47300;46.192;9.000;2022-12-29T13:38:48;98569.47;;;10.35;56.92
61434;BME280;47300;46.192;9.000;2022-12-29T13:41:30;98577.38;;;10.41;57.56
61434;BME280;47300;46.192;9.000;2022-12-29T13:43:57;98573.88;;;10.47;57.77
61434;BME280;47300;46.192;9.000;2022-12-29T13:46:27;98569.50;;;10.49;57.60
61434;BME280;47300;46.192;9.000;2022-12-29T13:49:26;98570.38;;;10.51;58.32
61434;BME280;47300;46.192;9.000;2022-12-29T13:52:21;98560.75;;;10.55;56.57
61434;BME280;47300;46.192;9.000;2022-12-29T13:54:51;98566.00;;;10.55;59.30
61434;BME280;47300;46.192;9.000;2022-12-29T14:00:21;98552.88;;;10.44;58.31
61434;BME280;47300;46.192;9.000;2022-12-29T14:02:50;98555.53;;;10.41;58.80
61434;BME280;47300;46.192;9.000;2022-12-29T14:05:27;98563.38;;;10.38;58.54
61434;BME280;47300;46.192;9.000;2022-12-29T14:08:04;98560.72;;;10.39;58.25
61434;BME280;47300;46.192;9.000;2022-12-29T14:10:34;98559.00;;;10.17;58.44
61434;BME280;47300;46.192;9.000;2022-12-29T14:13:03;98554.66;;;10.19;59.15
61434;BME280;47300;46.192;9.000;2022-12-29T14:15:29;98562.50;;;10.11;58.92
61434;BME280;47300;46.192;9.000;2022-12-29T14:20:50;98580.88;;;10.09;58.63
61434;BME280;47300;46.192;9.000;2022-12-29T14:23:25;98570.38;;;10.11;58.11
61434;BME280;47300;46.192;9.000;2022-12-29T14:26:09;98567.78;;;10.09;58.49
61434;BME280;47300;46.192;9.000;2022-12-29T14:28:36;98565.13;;;10.03;59.74
61434;BME280;47300;46.192;9.000;2022-12-29T14:31:18;98569.50;;;9.98;60.28
61434;BME280;47300;46.192;9.000;2022-12-29T14:39:30;98573.00;;;9.86;62.44
61434;BME280;47300;46.192;9.000;2022-12-29T14:42:00;98574.75;;;9.89;61.81
61434;BME280;47300;46.192;9.000;2022-12-29T14:44:26;98563.38;;;9.93;61.57
61434;BME280;47300;46.192;9.000;2022-12-29T14:49:20;98567.72;;;9.80;64.21
61434;BME280;47300;46.192;9.000;2022-12-29T14:51:47;98575.63;;;9.78;64.81
61434;BME280;47300;46.192;9.000;2022-12-29T14:57:00;98575.59;;;9.74;65.21
61434;BME280;47300;46.192;9.000;2022-12-29T14:59:27;98572.09;;;9.75;65.43
61434;BME280;47300;46.192;9.000;2022-12-29T15:01:53;98578.22;;;9.75;65.63
61434;BME280;47300;46.192;9.000;2022-12-29T15:04:28;98583.47;;;9.72;64.40
61434;BME280;47300;46.192;9.000;2022-12-29T15:06:55;98589.56;;;9.69;66.25
61434;BME280;47300;46.192;9.000;2022-12-29T15:11:51;98590.44;;;9.59;67.31
61434;BME280;47300;46.192;9.000;2022-12-29T15:17:27;98593.00;;;9.45;67.73